createdAt,value
2023-05-03T00:00:55.144Z,1.03
2023-05-03T00:01:58.584Z,1.00
2023-05-03T00:03:23.104Z,1.00
2023-05-03T00:04:34.635Z,1.00
2023-05-03T00:05:37.703Z,1.00
2023-05-03T00:06:41.344Z,0.90
2023-05-03T00:07:45.774Z,1.00
2023-05-03T00:08:48.688Z,0.85
2023-05-03T00:09:52.874Z,0.98
2023-05-03T00:11:00.273Z,1.25
2023-05-03T00:12:05.149Z,1.33
2023-05-03T00:13:08.877Z,1.10
2023-05-03T00:14:12.609Z,0.90
2023-05-03T00:15:15.101Z,0.95
2023-05-03T00:16:18.460Z,1.00
2023-05-03T00:17:20.907Z,0.80
2023-05-03T00:18:24.256Z,1.03
2023-05-03T00:19:31.871Z,0.97
2023-05-03T00:20:35.322Z,1.00
2023-05-03T00:21:37.684Z,1.00
2023-05-03T00:22:41.164Z,1.00
2023-05-03T00:23:43.670Z,0.87
2023-05-03T00:24:46.969Z,1.10
2023-05-03T00:25:53.005Z,1.10
2023-05-03T00:26:56.722Z,1.00
2023-05-03T00:27:59.030Z,0.90
2023-05-03T00:29:03.698Z,0.70
2023-05-03T00:30:07.161Z,1.10
2023-05-03T00:31:11.034Z,0.77
2023-05-03T00:32:13.718Z,1.00
2023-05-03T00:33:17.711Z,2.08
2023-05-03T00:34:20.043Z,1.00
2023-05-03T00:35:23.922Z,0.80
2023-05-03T00:36:28.218Z,0.77
2023-05-03T00:37:33.063Z,1.27
2023-05-03T00:38:35.488Z,0.70
2023-05-03T00:39:38.882Z,0.70
2023-05-03T00:40:41.379Z,0.82
2023-05-03T00:41:44.730Z,0.80
2023-05-03T00:42:47.506Z,0.70
2023-05-03T00:43:51.074Z,0.70
2023-05-03T00:44:56.120Z,0.90
2023-05-03T00:46:12.245Z,0.80
2023-05-03T00:47:19.217Z,0.80
2023-05-03T00:48:22.395Z,0.70
2023-05-03T00:49:26.875Z,0.88
2023-05-03T00:50:30.061Z,0.80
2023-05-03T00:51:33.893Z,0.80
2023-05-03T00:52:36.341Z,0.80
2023-05-03T00:53:40.840Z,1.00
2023-05-03T00:54:43.311Z,0.80
2023-05-03T00:55:47.003Z,0.90
2023-05-03T00:56:52.195Z,0.77
2023-05-03T00:57:56.084Z,0.70
2023-05-03T00:58:58.750Z,0.70
2023-05-03T01:00:04.208Z,0.90
2023-05-03T01:01:12.200Z,0.90
2023-05-03T01:02:14.530Z,0.75
2023-05-03T01:03:18.576Z,0.60
2023-05-03T01:04:23.539Z,0.70
2023-05-03T01:05:29.999Z,0.80
2023-05-03T01:06:40.472Z,0.90
2023-05-03T01:07:54.865Z,0.80
2023-05-03T01:09:02.498Z,0.80
2023-05-03T01:10:19.162Z,0.80
2023-05-03T01:11:27.078Z,0.80
2023-05-03T01:12:43.398Z,0.80
2023-05-03T01:13:55.269Z,0.85
2023-05-03T01:15:08.608Z,0.70
2023-05-03T01:16:19.143Z,0.70
2023-05-03T01:17:29.252Z,0.80
2023-05-03T01:18:38.036Z,0.60
2023-05-03T01:19:45.816Z,0.70
2023-05-03T01:20:49.748Z,0.82
2023-05-03T01:22:00.909Z,0.70
2023-05-03T01:23:11.247Z,0.70
2023-05-03T01:24:23.196Z,0.60
2023-05-03T01:25:27.107Z,1.20
2023-05-03T01:26:31.015Z,0.60
2023-05-03T01:27:33.496Z,0.70
2023-05-03T01:28:36.760Z,0.70
2023-05-03T01:29:39.475Z,0.70
2023-05-03T01:30:43.836Z,0.70
2023-05-03T01:31:52.849Z,0.70
2023-05-03T01:33:04.103Z,0.70
2023-05-03T01:34:18.542Z,0.70
2023-05-03T01:35:30.700Z,0.80
2023-05-03T01:36:37.166Z,0.70
2023-05-03T01:37:41.485Z,0.82
2023-05-03T01:38:44.372Z,0.60
2023-05-03T01:39:55.742Z,0.80
2023-05-03T01:41:02.845Z,0.70
2023-05-03T01:42:07.246Z,0.70
2023-05-03T01:43:12.418Z,0.80
2023-05-03T01:44:17.139Z,0.60
2023-05-03T01:45:20.226Z,0.80
2023-05-03T01:46:23.829Z,0.60
2023-05-03T01:47:26.958Z,0.70
2023-05-03T01:48:30.365Z,0.70
2023-05-03T01:49:33.299Z,0.60
2023-05-03T01:50:36.938Z,0.68
2023-05-03T01:51:39.364Z,0.77
2023-05-03T01:52:42.690Z,0.60
2023-05-03T01:53:45.075Z,0.80
2023-05-03T01:54:48.794Z,0.60
2023-05-03T01:55:51.878Z,0.70
2023-05-03T01:56:56.835Z,0.80
2023-05-03T01:57:59.191Z,0.70
2023-05-03T01:59:02.524Z,0.80
2023-05-03T02:00:06.331Z,0.70
2023-05-03T02:01:11.618Z,0.68
2023-05-03T02:02:14.016Z,0.80
2023-05-03T02:03:17.360Z,0.70
2023-05-03T02:04:19.800Z,0.60
2023-05-03T02:05:24.020Z,0.70
2023-05-03T02:06:26.657Z,0.70
2023-05-03T02:07:30.284Z,0.70
2023-05-03T02:08:33.674Z,0.70
2023-05-03T02:09:36.008Z,0.70
2023-05-03T02:10:39.270Z,0.70
2023-05-03T02:11:41.683Z,0.60
2023-05-03T02:12:46.550Z,0.60
2023-05-03T02:13:50.487Z,0.70
2023-05-03T02:14:53.794Z,0.80
2023-05-03T02:15:56.175Z,0.70
2023-05-03T02:17:00.557Z,0.70
2023-05-03T02:18:04.061Z,0.70
2023-05-03T02:19:08.538Z,0.65
2023-05-03T02:20:11.625Z,0.65
2023-05-03T02:21:15.518Z,0.70
2023-05-03T02:22:18.144Z,1.02
2023-05-03T02:23:21.853Z,0.70
2023-05-03T02:24:24.314Z,0.70
2023-05-03T02:25:27.797Z,0.70
2023-05-03T02:26:30.682Z,0.70
2023-05-03T02:27:33.997Z,0.70
2023-05-03T02:28:37.799Z,0.80
2023-05-03T02:29:41.270Z,0.60
2023-05-03T02:30:43.914Z,0.65
2023-05-03T02:31:47.317Z,0.80
2023-05-03T02:32:49.701Z,0.77
2023-05-03T02:33:53.032Z,0.70
2023-05-03T02:34:55.577Z,0.70
2023-05-03T02:35:58.877Z,0.70
2023-05-03T02:37:01.709Z,0.65
2023-05-03T02:38:04.985Z,0.80
2023-05-03T02:39:07.419Z,0.80
2023-05-03T02:40:11.135Z,0.80
2023-05-03T02:41:13.795Z,0.82
2023-05-03T02:42:17.441Z,0.77
2023-05-03T02:43:19.718Z,0.80
2023-05-03T02:44:25.431Z,0.60
2023-05-03T02:45:27.872Z,0.73
2023-05-03T02:46:31.214Z,0.70
2023-05-03T02:47:34.309Z,0.70
2023-05-03T02:48:38.034Z,0.70
2023-05-03T02:49:40.460Z,0.70
2023-05-03T02:50:43.945Z,0.70
2023-05-03T02:51:46.786Z,0.60
2023-05-03T02:52:50.051Z,0.75
2023-05-03T02:53:52.443Z,1.10
2023-05-03T02:54:56.453Z,0.90
2023-05-03T02:55:58.854Z,0.80
2023-05-03T02:57:03.385Z,0.75
2023-05-03T02:58:05.976Z,0.70
2023-05-03T02:59:09.467Z,0.70
2023-05-03T03:00:21.181Z,0.60
2023-05-03T03:01:33.046Z,0.80
2023-05-03T03:02:44.080Z,0.70
2023-05-03T03:03:51.944Z,0.80
2023-05-03T03:05:03.562Z,0.80
2023-05-03T03:06:10.638Z,0.98
2023-05-03T03:07:17.641Z,0.80
2023-05-03T03:08:29.190Z,0.80
2023-05-03T03:09:41.292Z,0.80
2023-05-03T03:10:45.576Z,1.05
2023-05-03T03:11:52.027Z,1.23
2023-05-03T03:12:55.808Z,0.80
2023-05-03T03:13:58.664Z,0.98
2023-05-03T03:15:02.030Z,0.90
2023-05-03T03:16:06.326Z,0.80
2023-05-03T03:17:10.198Z,1.00
2023-05-03T03:18:12.670Z,1.08
2023-05-03T03:19:16.176Z,0.90
2023-05-03T03:20:19.939Z,1.10
2023-05-03T03:21:22.368Z,1.10
2023-05-03T03:22:26.585Z,1.00
2023-05-03T03:23:29.026Z,1.05
2023-05-03T03:24:33.069Z,1.13
2023-05-03T03:25:35.433Z,0.95
2023-05-03T03:26:38.755Z,0.80
2023-05-03T03:27:41.983Z,1.05
2023-05-03T03:28:45.692Z,0.90
2023-05-03T03:29:48.046Z,1.02
2023-05-03T03:30:51.388Z,1.10
2023-05-03T03:31:55.171Z,1.08
2023-05-03T03:32:58.619Z,0.93
2023-05-03T03:34:01.293Z,1.20
2023-05-03T03:35:05.314Z,1.30
2023-05-03T03:36:10.651Z,1.20
2023-05-03T03:37:13.121Z,1.15
2023-05-03T03:38:16.366Z,1.23
2023-05-03T03:39:18.816Z,1.20
2023-05-03T03:40:22.478Z,1.05
2023-05-03T03:41:24.989Z,1.10
2023-05-03T03:42:28.452Z,1.00
2023-05-03T03:43:30.834Z,1.30
2023-05-03T03:44:34.399Z,1.15
2023-05-03T03:45:36.853Z,1.10
2023-05-03T03:46:40.108Z,1.10
2023-05-03T03:47:44.152Z,1.17
2023-05-03T03:48:47.508Z,1.35
2023-05-03T03:49:50.287Z,1.20
2023-05-03T03:50:53.788Z,1.45
2023-05-03T03:51:56.645Z,1.20
2023-05-03T03:52:59.906Z,1.35
2023-05-03T03:54:02.249Z,1.20
2023-05-03T03:55:06.424Z,1.10
2023-05-03T03:56:09.022Z,1.20
2023-05-03T03:57:12.484Z,1.20
2023-05-03T03:58:15.078Z,1.30
2023-05-03T03:59:18.373Z,1.30
2023-05-03T04:00:20.742Z,1.35
2023-05-03T04:01:24.816Z,1.30
2023-05-03T04:02:28.437Z,1.30
2023-05-03T04:03:33.551Z,1.25
2023-05-03T04:04:36.414Z,1.30
2023-05-03T04:05:40.277Z,1.00
2023-05-03T04:06:43.785Z,1.20
2023-05-03T04:07:47.520Z,1.38
2023-05-03T04:08:49.837Z,1.33
2023-05-03T04:09:53.271Z,1.42
2023-05-03T04:10:55.852Z,1.20
2023-05-03T04:11:59.188Z,1.33
2023-05-03T04:13:01.707Z,1.60
2023-05-03T04:14:05.079Z,1.13
2023-05-03T04:15:08.885Z,1.30
2023-05-03T04:16:12.284Z,1.10
2023-05-03T04:17:14.750Z,1.35
2023-05-03T04:18:18.160Z,1.38
2023-05-03T04:19:25.328Z,1.80
2023-05-03T04:20:28.156Z,1.27
2023-05-03T04:21:31.563Z,2.03
2023-05-03T04:22:34.209Z,1.80
2023-05-03T04:23:38.351Z,1.10
2023-05-03T04:24:41.096Z,1.83
2023-05-03T04:25:46.962Z,1.40
2023-05-03T04:26:51.878Z,1.60
2023-05-03T04:27:55.755Z,1.50
2023-05-03T04:28:58.305Z,1.50
2023-05-03T04:30:01.877Z,1.75
2023-05-03T04:31:04.766Z,1.42
2023-05-03T04:32:08.922Z,2.40
2023-05-03T04:33:11.762Z,1.70
2023-05-03T04:34:16.244Z,2.13
2023-05-03T04:35:21.333Z,1.40
2023-05-03T04:36:25.971Z,1.63
2023-05-03T04:37:29.380Z,1.60
2023-05-03T04:38:31.810Z,1.40
2023-05-03T04:39:35.060Z,1.20
2023-05-03T04:40:38.734Z,1.48
2023-05-03T04:41:42.667Z,1.30
2023-05-03T04:42:44.990Z,1.48
2023-05-03T04:43:48.323Z,1.42
2023-05-03T04:44:50.702Z,1.60
2023-05-03T04:45:54.480Z,1.17
2023-05-03T04:46:57.085Z,1.40
2023-05-03T04:48:00.576Z,1.13
2023-05-03T04:49:03.059Z,1.30
2023-05-03T04:50:08.042Z,1.38
2023-05-03T04:51:12.201Z,1.30
2023-05-03T04:52:15.822Z,1.50
2023-05-03T04:53:18.204Z,1.25
2023-05-03T04:54:21.867Z,1.60
2023-05-03T04:55:24.283Z,1.42
2023-05-03T04:56:27.894Z,1.45
2023-05-03T04:57:32.264Z,1.55
2023-05-03T04:58:37.093Z,1.83
2023-05-03T04:59:39.498Z,1.90
2023-05-03T05:00:43.430Z,1.52
2023-05-03T05:01:45.875Z,1.70
2023-05-03T05:02:49.259Z,1.60
2023-05-03T05:03:52.272Z,1.60
2023-05-03T05:04:55.842Z,1.80
2023-05-03T05:05:58.213Z,1.73
2023-05-03T05:07:02.890Z,1.30
2023-05-03T05:08:05.543Z,1.40
2023-05-03T05:09:21.142Z,1.60
2023-05-03T05:10:23.525Z,1.88
2023-05-03T05:11:27.439Z,1.90
2023-05-03T05:12:30.012Z,1.67
2023-05-03T05:13:33.352Z,2.22
2023-05-03T05:14:35.838Z,1.70
2023-05-03T05:15:40.585Z,1.70
2023-05-03T05:16:42.979Z,2.08
2023-05-03T05:17:46.483Z,1.60
2023-05-03T05:18:48.828Z,1.65
2023-05-03T05:19:52.201Z,1.80
2023-05-03T05:20:55.066Z,1.90
2023-05-03T05:21:58.500Z,1.92
2023-05-03T05:23:02.172Z,2.03
2023-05-03T05:24:05.905Z,2.10
2023-05-03T05:25:10.232Z,2.55
2023-05-03T05:26:12.893Z,1.90
2023-05-03T05:27:16.849Z,1.85
2023-05-03T05:28:19.479Z,2.30
2023-05-03T05:29:22.866Z,2.10
2023-05-03T05:30:25.824Z,1.65
2023-05-03T05:31:29.363Z,2.08
2023-05-03T05:32:31.979Z,1.70
2023-05-03T05:33:35.422Z,1.80
2023-05-03T05:34:44.981Z,2.20
2023-05-03T05:35:49.556Z,1.60
2023-05-03T05:36:53.226Z,2.15
2023-05-03T05:37:56.231Z,1.77
2023-05-03T05:39:01.025Z,1.65
2023-05-03T05:40:05.114Z,2.08
2023-05-03T05:41:08.816Z,1.85
2023-05-03T05:42:11.212Z,2.20
2023-05-03T05:43:14.755Z,2.47
2023-05-03T05:44:17.132Z,2.45
2023-05-03T05:45:20.669Z,1.90
2023-05-03T05:46:24.139Z,2.20
2023-05-03T05:47:27.578Z,2.65
2023-05-03T05:48:30.774Z,2.40
2023-05-03T05:49:34.041Z,2.08
2023-05-03T05:50:39.187Z,2.45
2023-05-03T05:51:43.373Z,2.45
2023-05-03T05:52:45.947Z,2.65
2023-05-03T05:53:49.508Z,2.03
2023-05-03T05:54:54.229Z,2.20
2023-05-03T05:55:58.738Z,2.55
2023-05-03T05:57:01.637Z,2.30
2023-05-03T05:58:05.068Z,2.25
2023-05-03T05:59:07.639Z,2.45
2023-05-03T06:00:14.847Z,2.50
2023-05-03T06:01:19.921Z,2.45
2023-05-03T06:02:25.018Z,2.30
2023-05-03T06:03:27.904Z,2.58
2023-05-03T06:04:31.235Z,2.65
2023-05-03T06:05:34.777Z,2.28
2023-05-03T06:06:37.261Z,2.38
2023-05-03T06:07:41.025Z,2.20
2023-05-03T06:08:44.823Z,2.20
2023-05-03T06:09:47.198Z,2.33
2023-05-03T06:10:53.057Z,1.90
2023-05-03T06:11:55.604Z,2.25
2023-05-03T06:12:58.897Z,2.30
2023-05-03T06:14:03.638Z,2.13
2023-05-03T06:15:08.593Z,2.40
2023-05-03T06:16:12.657Z,1.93
2023-05-03T06:17:15.583Z,2.10
2023-05-03T06:18:19.000Z,1.80
2023-05-03T06:19:22.785Z,2.00
2023-05-03T06:20:25.415Z,2.03
2023-05-03T06:21:30.249Z,2.28
2023-05-03T06:22:32.680Z,2.03
2023-05-03T06:23:37.791Z,1.95
2023-05-03T06:24:40.181Z,2.20
2023-05-03T06:25:43.548Z,2.15
2023-05-03T06:26:47.795Z,2.10
2023-05-03T06:27:51.257Z,2.50
2023-05-03T06:28:53.682Z,1.80
2023-05-03T06:29:56.940Z,2.00
2023-05-03T06:31:00.354Z,2.07
2023-05-03T06:32:03.065Z,2.10
2023-05-03T06:33:07.081Z,2.20
2023-05-03T06:34:10.700Z,2.20
2023-05-03T06:35:14.384Z,2.17
2023-05-03T06:36:17.731Z,1.98
2023-05-03T06:37:20.498Z,2.03
2023-05-03T06:38:24.180Z,1.70
2023-05-03T06:39:28.414Z,2.20
2023-05-03T06:40:30.911Z,2.08
2023-05-03T06:41:34.223Z,1.90
2023-05-03T06:42:39.480Z,2.17
2023-05-03T06:43:42.808Z,1.80
2023-05-03T06:44:45.616Z,2.37
2023-05-03T06:45:48.878Z,2.00
2023-05-03T06:46:52.681Z,2.10
2023-05-03T06:47:55.267Z,1.70
2023-05-03T06:48:58.679Z,1.83
2023-05-03T06:50:01.315Z,2.30
2023-05-03T06:51:05.260Z,1.90
2023-05-03T06:52:08.839Z,1.73
2023-05-03T06:53:14.311Z,2.00
2023-05-03T06:54:17.723Z,2.23
2023-05-03T06:55:21.070Z,1.50
2023-05-03T06:56:25.111Z,1.80
2023-05-03T06:57:28.809Z,1.70
2023-05-03T06:58:33.742Z,1.65
2023-05-03T06:59:36.251Z,1.90
2023-05-03T07:00:40.847Z,1.60
2023-05-03T07:01:46.335Z,1.67
2023-05-03T07:02:48.965Z,1.80
2023-05-03T07:03:52.420Z,1.80
2023-05-03T07:04:54.876Z,1.60
2023-05-03T07:05:58.214Z,1.50
2023-05-03T07:07:01.615Z,1.73
2023-05-03T07:08:05.331Z,1.70
2023-05-03T07:09:08.739Z,1.63
2023-05-03T07:10:12.445Z,1.73
2023-05-03T07:11:15.092Z,1.90
2023-05-03T07:12:18.439Z,1.77
2023-05-03T07:13:20.800Z,1.67
2023-05-03T07:14:27.430Z,2.00
2023-05-03T07:15:30.079Z,2.00
2023-05-03T07:16:34.026Z,1.80
2023-05-03T07:17:36.477Z,1.70
2023-05-03T07:18:39.866Z,1.77
2023-05-03T07:19:42.937Z,1.80
2023-05-03T07:20:46.572Z,1.83
2023-05-03T07:21:49.148Z,2.03
2023-05-03T07:22:52.470Z,1.87
2023-05-03T07:23:54.891Z,1.80
2023-05-03T07:24:59.838Z,1.67
2023-05-03T07:26:02.525Z,1.77
2023-05-03T07:27:05.935Z,1.70
2023-05-03T07:28:09.386Z,1.60
2023-05-03T07:29:11.968Z,1.93
2023-05-03T07:30:16.910Z,1.70
2023-05-03T07:31:19.579Z,1.87
2023-05-03T07:32:23.155Z,1.90
2023-05-03T07:33:29.522Z,1.93
2023-05-03T07:34:32.921Z,1.90
2023-05-03T07:35:36.389Z,2.20
2023-05-03T07:36:40.382Z,2.00
2023-05-03T07:37:43.726Z,2.00
2023-05-03T07:38:46.610Z,2.50
2023-05-03T07:39:50.359Z,2.13
2023-05-03T07:40:53.695Z,2.13
2023-05-03T07:41:57.287Z,2.10
2023-05-03T07:43:00.780Z,2.30
2023-05-03T07:44:07.867Z,2.63
2023-05-03T07:45:11.935Z,3.10
2023-05-03T07:46:16.735Z,2.30
2023-05-03T07:47:20.086Z,2.33
2023-05-03T07:48:23.436Z,2.60
2023-05-03T07:49:26.719Z,2.63
2023-05-03T07:50:29.533Z,2.70
2023-05-03T07:51:37.300Z,3.20
2023-05-03T07:52:42.454Z,2.33
2023-05-03T07:53:45.811Z,3.10
2023-05-03T07:54:48.150Z,2.37
2023-05-03T07:55:55.894Z,2.60
2023-05-03T07:56:59.685Z,2.60
2023-05-03T07:58:02.108Z,2.57
2023-05-03T07:59:09.880Z,2.57
2023-05-03T08:00:14.951Z,2.50
2023-05-03T08:01:21.789Z,2.50
2023-05-03T08:02:25.622Z,2.40
2023-05-03T08:03:28.177Z,2.60
2023-05-03T08:04:31.840Z,2.30
2023-05-03T08:05:36.677Z,2.60
2023-05-03T08:06:50.194Z,2.50
2023-05-03T08:07:53.941Z,2.60
2023-05-03T08:08:56.321Z,2.50
2023-05-03T08:09:59.951Z,2.50
2023-05-03T08:11:05.831Z,2.67
2023-05-03T08:12:19.189Z,2.20
2023-05-03T08:13:22.841Z,2.70
2023-05-03T08:14:28.443Z,2.00
2023-05-03T08:15:31.899Z,2.50
2023-05-03T08:16:35.686Z,2.17
2023-05-03T08:17:43.201Z,2.77
2023-05-03T08:18:47.211Z,2.20
2023-05-03T08:19:50.171Z,2.47
2023-05-03T08:20:53.592Z,3.00
2023-05-03T08:21:56.028Z,2.27
2023-05-03T08:22:59.432Z,2.43
2023-05-03T08:24:15.920Z,2.90
2023-05-03T08:25:19.030Z,2.30
2023-05-03T08:26:24.333Z,2.20
2023-05-03T08:27:28.651Z,2.50
2023-05-03T08:28:32.269Z,2.20
2023-05-03T08:29:37.592Z,2.70
2023-05-03T08:30:51.774Z,2.23
2023-05-03T08:32:07.885Z,2.63
2023-05-03T08:33:11.348Z,2.30
2023-05-03T08:34:14.815Z,2.70
2023-05-03T08:35:18.527Z,2.47
2023-05-03T08:36:21.861Z,2.40
2023-05-03T08:37:24.428Z,2.70
2023-05-03T08:38:30.423Z,2.43
2023-05-03T08:39:43.753Z,2.60
2023-05-03T08:40:49.709Z,2.30
2023-05-03T08:41:53.220Z,2.50
2023-05-03T08:43:00.780Z,2.40
2023-05-03T08:44:05.930Z,2.87
2023-05-03T08:45:12.507Z,2.60
2023-05-03T08:46:16.404Z,2.47
2023-05-03T08:47:22.056Z,2.63
2023-05-03T08:48:25.553Z,2.50
2023-05-03T08:49:30.743Z,2.80
2023-05-03T08:50:45.195Z,2.80
2023-05-03T08:51:49.819Z,2.70
2023-05-03T08:52:53.341Z,2.67
2023-05-03T08:53:57.318Z,2.70
2023-05-03T08:55:00.014Z,2.37
2023-05-03T08:56:08.075Z,2.80
2023-05-03T08:57:13.934Z,2.50
2023-05-03T08:58:17.829Z,2.40
2023-05-03T08:59:20.171Z,2.33
2023-05-03T09:00:30.392Z,2.43
2023-05-03T09:01:35.584Z,2.83
2023-05-03T09:02:40.975Z,2.60
2023-05-03T09:03:52.236Z,2.20
2023-05-03T09:04:56.837Z,2.40
2023-05-03T09:06:02.247Z,2.20
2023-05-03T09:07:09.505Z,2.30
2023-05-03T09:08:14.727Z,2.80
2023-05-03T09:09:33.086Z,2.50
2023-05-03T09:10:39.565Z,2.30
2023-05-03T09:11:42.878Z,2.70
2023-05-03T09:12:46.047Z,2.60
2023-05-03T09:14:10.666Z,2.00
2023-05-03T09:15:22.331Z,2.23
2023-05-03T09:16:27.534Z,2.23
2023-05-03T09:17:29.994Z,2.53
2023-05-03T09:18:34.654Z,2.13
2023-05-03T09:19:50.722Z,2.83
2023-05-03T09:20:56.302Z,2.40
2023-05-03T09:22:07.675Z,2.20
2023-05-03T09:23:11.647Z,3.03
2023-05-03T09:24:15.863Z,2.90
2023-05-03T09:25:18.474Z,1.90
2023-05-03T09:26:34.587Z,2.60
2023-05-03T09:27:38.353Z,2.40
2023-05-03T09:28:43.658Z,2.33
2023-05-03T09:29:46.246Z,2.50
2023-05-03T09:30:51.452Z,3.13
2023-05-03T09:32:00.926Z,2.33
2023-05-03T09:33:20.471Z,2.40
2023-05-03T09:34:25.231Z,2.00
2023-05-03T09:35:28.990Z,2.53
2023-05-03T09:36:47.423Z,2.30
2023-05-03T09:37:49.960Z,2.00
2023-05-03T09:38:53.936Z,2.20
2023-05-03T09:40:08.308Z,1.87
2023-05-03T09:41:13.334Z,2.50
2023-05-03T09:42:18.218Z,2.00
2023-05-03T09:43:20.596Z,2.00
2023-05-03T09:44:51.708Z,2.20
2023-05-03T09:46:09.891Z,2.23
2023-05-03T09:47:13.607Z,2.50
2023-05-03T09:48:16.956Z,2.43
2023-05-03T09:49:20.358Z,2.30
2023-05-03T09:50:24.625Z,2.13
2023-05-03T09:51:29.639Z,1.70
2023-05-03T09:52:33.076Z,2.20
2023-05-03T09:53:36.748Z,2.20
2023-05-03T09:54:41.025Z,2.50
2023-05-03T09:55:43.367Z,2.20
2023-05-03T09:56:47.674Z,2.43
2023-05-03T09:57:51.000Z,2.03
2023-05-03T09:58:55.152Z,2.20
2023-05-03T09:59:58.649Z,2.43
2023-05-03T10:01:01.987Z,2.03
2023-05-03T10:02:11.776Z,2.13
2023-05-03T10:03:24.760Z,2.40
2023-05-03T10:04:29.751Z,2.40
2023-05-03T10:05:36.071Z,2.17
2023-05-03T10:06:42.241Z,2.00
2023-05-03T10:07:45.518Z,2.20
2023-05-03T10:08:54.491Z,2.10
2023-05-03T10:09:58.881Z,2.00
2023-05-03T10:11:04.029Z,1.80
2023-05-03T10:12:11.924Z,2.30
2023-05-03T10:13:16.213Z,2.20
2023-05-03T10:14:20.121Z,2.40
2023-05-03T10:15:25.647Z,1.90
2023-05-03T10:16:32.745Z,2.23
2023-05-03T10:17:46.929Z,2.23
2023-05-03T10:18:55.652Z,2.23
2023-05-03T10:20:07.000Z,2.30
2023-05-03T10:21:16.824Z,2.30
2023-05-03T10:22:20.050Z,1.90
2023-05-03T10:23:22.424Z,2.40
2023-05-03T10:24:25.892Z,2.43
2023-05-03T10:25:28.247Z,2.23
2023-05-03T10:26:31.630Z,2.70
2023-05-03T10:27:43.995Z,2.40
2023-05-03T10:28:47.291Z,2.37
2023-05-03T10:29:51.627Z,2.10
2023-05-03T10:30:55.057Z,2.20
2023-05-03T10:31:57.452Z,2.30
2023-05-03T10:33:01.681Z,2.40
2023-05-03T10:34:21.793Z,2.37
2023-05-03T10:35:28.627Z,2.07
2023-05-03T10:36:48.497Z,2.13
2023-05-03T10:37:53.447Z,2.00
2023-05-03T10:38:58.942Z,2.53
2023-05-03T10:40:10.382Z,2.30
2023-05-03T10:41:13.704Z,2.07
2023-05-03T10:42:16.061Z,2.23
2023-05-03T10:43:44.788Z,2.37
2023-05-03T10:44:53.331Z,2.30
2023-05-03T10:45:57.563Z,2.20
2023-05-03T10:47:11.719Z,1.80
2023-05-03T10:48:22.803Z,2.27
2023-05-03T10:49:27.344Z,2.00
2023-05-03T10:50:30.384Z,2.33
2023-05-03T10:51:37.415Z,2.17
2023-05-03T10:52:47.594Z,2.33
2023-05-03T10:53:51.312Z,2.13
2023-05-03T10:54:54.653Z,2.10
2023-05-03T10:56:06.026Z,2.23
2023-05-03T10:57:09.851Z,2.40
2023-05-03T10:58:15.009Z,1.80
2023-05-03T10:59:18.942Z,1.90
2023-05-03T11:00:29.079Z,2.23
2023-05-03T11:01:35.685Z,2.20
2023-05-03T11:02:44.308Z,2.00
2023-05-03T11:03:51.959Z,1.90
2023-05-03T11:05:01.926Z,2.27
2023-05-03T11:06:05.914Z,2.20
2023-05-03T11:07:11.027Z,2.00
2023-05-03T11:08:17.139Z,1.90
2023-05-03T11:09:20.861Z,1.83
2023-05-03T11:10:25.392Z,1.93
2023-05-03T11:11:28.990Z,2.10
2023-05-03T11:12:32.341Z,1.70
2023-05-03T11:13:34.731Z,2.00
2023-05-03T11:14:39.872Z,1.70
2023-05-03T11:15:43.033Z,1.60
2023-05-03T11:16:50.754Z,1.67
2023-05-03T11:17:53.406Z,1.43
2023-05-03T11:18:57.062Z,1.90
2023-05-03T11:20:00.776Z,1.80
2023-05-03T11:21:03.603Z,1.90
2023-05-03T11:22:07.302Z,2.07
2023-05-03T11:23:12.366Z,1.70
2023-05-03T11:24:15.714Z,1.70
2023-05-03T11:25:18.701Z,1.70
2023-05-03T11:26:26.465Z,1.80
2023-05-03T11:27:30.049Z,1.60
2023-05-03T11:28:32.598Z,2.00
2023-05-03T11:29:36.630Z,1.90
2023-05-03T11:30:39.015Z,1.90
2023-05-03T11:31:44.127Z,2.00
2023-05-03T11:32:48.604Z,1.83
2023-05-03T11:33:52.075Z,1.60
2023-05-03T11:34:56.347Z,2.10
2023-05-03T11:35:59.698Z,2.10
2023-05-03T11:37:04.296Z,1.90
2023-05-03T11:38:07.575Z,1.83
2023-05-03T11:39:13.154Z,1.70
2023-05-03T11:40:17.162Z,1.57
2023-05-03T11:41:20.608Z,1.70
2023-05-03T11:42:25.970Z,1.80
2023-05-03T11:43:29.513Z,1.97
2023-05-03T11:44:33.539Z,1.90
2023-05-03T11:45:42.417Z,2.00
2023-05-03T11:46:47.068Z,2.10
2023-05-03T11:47:55.085Z,1.80
2023-05-03T11:48:58.993Z,1.60
2023-05-03T11:50:02.396Z,1.70
2023-05-03T11:51:11.423Z,1.90
2023-05-03T11:52:15.388Z,1.80
2023-05-03T11:53:19.841Z,1.80
2023-05-03T11:54:27.487Z,2.17
2023-05-03T11:55:31.320Z,1.90
2023-05-03T11:56:35.608Z,1.93
2023-05-03T11:57:39.920Z,2.00
2023-05-03T11:58:56.155Z,1.80
2023-05-03T12:00:13.282Z,2.20
2023-05-03T12:01:17.620Z,2.40
2023-05-03T12:02:21.065Z,1.70
2023-05-03T12:03:30.727Z,1.83
2023-05-03T12:04:36.632Z,1.70
2023-05-03T12:05:39.809Z,1.90
2023-05-03T12:06:49.092Z,1.83
2023-05-03T12:07:58.009Z,2.37
2023-05-03T12:09:04.414Z,1.80
2023-05-03T12:11:25.028Z,2.00
2023-05-03T12:12:32.821Z,2.23
2023-05-03T12:13:40.691Z,1.93
2023-05-03T12:14:59.615Z,2.00
2023-05-03T12:17:11.587Z,2.30
2023-05-03T12:18:14.664Z,1.80
2023-05-03T12:19:27.166Z,1.97
2023-05-03T12:21:54.116Z,2.27
2023-05-03T12:23:04.664Z,1.90
2023-05-03T12:24:10.851Z,2.13
2023-05-03T12:25:15.779Z,2.00
2023-05-03T12:26:20.233Z,1.97
2023-05-03T12:27:24.051Z,2.00
2023-05-03T12:28:27.591Z,2.40
2023-05-03T12:29:34.692Z,2.13
2023-05-03T12:30:40.651Z,2.23
2023-05-03T12:31:47.041Z,2.13
2023-05-03T12:32:51.672Z,2.00
2023-05-03T12:34:19.887Z,2.20
2023-05-03T12:35:21.150Z,2.40
2023-05-03T12:36:26.235Z,2.30
2023-05-03T12:37:33.146Z,1.90
2023-05-03T12:38:37.811Z,2.20
2023-05-03T12:39:45.788Z,2.40
2023-05-03T12:40:53.283Z,2.40
2023-05-03T12:42:07.097Z,2.23
2023-05-03T12:43:10.804Z,2.60
2023-05-03T12:44:16.842Z,1.87
2023-05-03T12:45:21.292Z,2.50
2023-05-03T12:47:30.865Z,2.10
2023-05-03T12:48:34.642Z,2.23
2023-05-03T12:49:38.989Z,2.13
2023-05-03T12:50:45.438Z,2.10
2023-05-03T12:52:04.795Z,2.33
2023-05-03T12:53:17.078Z,2.27
2023-05-03T12:54:20.122Z,2.10
2023-05-03T12:55:25.651Z,2.10
2023-05-03T12:56:32.820Z,2.20
2023-05-03T12:57:37.937Z,2.47
2023-05-03T12:59:53.991Z,2.43
2023-05-03T13:01:38.009Z,2.50
2023-05-03T13:03:36.544Z,2.10
2023-05-03T13:04:57.088Z,2.20
2023-05-03T13:06:12.463Z,2.23
2023-05-03T13:07:17.824Z,2.20
2023-05-03T13:08:33.497Z,2.77
2023-05-03T13:10:13.030Z,2.13
2023-05-03T13:11:01.472Z,2.03
2023-05-03T13:12:06.103Z,2.17
2023-05-03T13:13:11.413Z,2.53
2023-05-03T13:14:14.426Z,2.60
2023-05-03T13:15:17.950Z,2.20
2023-05-03T13:16:21.484Z,2.20
2023-05-03T13:17:25.410Z,2.20
2023-05-03T13:18:28.845Z,2.00
2023-05-03T13:19:31.164Z,2.30
2023-05-03T13:20:34.583Z,2.50
2023-05-03T13:21:36.978Z,2.40
2023-05-03T13:22:40.706Z,1.80
2023-05-03T13:23:43.158Z,2.17
2023-05-03T13:24:48.047Z,2.40
2023-05-03T13:25:54.322Z,2.57
2023-05-03T13:26:56.704Z,2.20
2023-05-03T13:28:03.316Z,2.30
2023-05-03T13:29:06.285Z,1.93
2023-05-03T13:30:10.925Z,2.00
2023-05-03T13:31:13.314Z,2.20
2023-05-03T13:32:17.075Z,2.03
2023-05-03T13:33:21.369Z,2.10
2023-05-03T13:34:23.836Z,1.90
2023-05-03T13:35:27.236Z,2.07
2023-05-03T13:36:29.828Z,2.10
2023-05-03T13:37:33.186Z,2.10
2023-05-03T13:38:36.050Z,2.23
2023-05-03T13:39:39.356Z,2.20
2023-05-03T13:40:43.105Z,2.20
2023-05-03T13:41:47.580Z,2.10
2023-05-03T13:42:51.448Z,2.03
2023-05-03T13:43:55.152Z,2.13
2023-05-03T13:44:59.411Z,2.40
2023-05-03T13:46:02.292Z,2.00
2023-05-03T13:47:06.292Z,2.03
2023-05-03T13:48:16.358Z,2.27
2023-05-03T13:49:22.697Z,2.00
2023-05-03T13:50:25.994Z,2.50
2023-05-03T13:51:28.686Z,2.13
2023-05-03T13:52:32.260Z,1.90
2023-05-03T13:53:34.758Z,2.17
2023-05-03T13:54:38.344Z,1.63
2023-05-03T13:55:41.759Z,2.13
2023-05-03T13:56:45.111Z,2.20
2023-05-03T13:57:48.337Z,1.83
2023-05-03T13:58:51.263Z,2.10
2023-05-03T13:59:56.015Z,2.30
2023-05-03T14:00:58.584Z,2.40
2023-05-03T14:02:02.269Z,1.80
2023-05-03T14:03:04.995Z,1.80
2023-05-03T14:04:10.256Z,2.00
2023-05-03T14:05:14.593Z,1.97
2023-05-03T14:06:17.089Z,2.37
2023-05-03T14:07:20.501Z,1.80
2023-05-03T14:08:22.959Z,1.60
2023-05-03T14:09:26.588Z,1.90
2023-05-03T14:10:29.950Z,1.97
2023-05-03T14:11:33.558Z,1.80
2023-05-03T14:12:37.930Z,1.90
2023-05-03T14:13:55.388Z,2.00
2023-05-03T14:15:03.838Z,1.83
2023-05-03T14:16:06.573Z,1.80
2023-05-03T14:17:10.061Z,1.93
2023-05-03T14:18:12.504Z,1.93
2023-05-03T14:19:18.107Z,1.80
2023-05-03T14:20:22.113Z,2.00
2023-05-03T14:21:26.455Z,1.80
2023-05-03T14:22:29.945Z,2.13
2023-05-03T14:23:32.334Z,1.80
2023-05-03T14:24:36.785Z,2.10
2023-05-03T14:31:46.516Z,2.10
2023-05-03T14:32:49.993Z,1.90
2023-05-03T14:33:53.791Z,2.00
2023-05-03T14:34:57.695Z,1.90
2023-05-03T14:36:00.155Z,1.80
2023-05-03T14:37:03.548Z,1.90
2023-05-03T14:38:06.520Z,1.60
2023-05-03T14:39:10.232Z,2.33